Aérodrome :
LOGIN :

S'inscrire | Disclaimer

   EN    FR    IT 

 










Légende :    VFR   VFR Marginal   IFR   IFR Intensif   IFR Très Intensif
Visi : 
Plafond : 
>= 8 km
>= 3000ft
5 à 8 km
1000 à 3000 ft
1500m à 5 km
500 à 1000 ft
800 à 1500m
200 à 500 ft
< 800m
< 200 ft
Symboles :   Orages  Brouillard  Fortes neiges  Fortes précipitations  Vent > 20 kt
SIGMETs :   Divers  Orages  Givrage  Turbulence  Onde Orograph.  Cendres Volcan.






- Altitude de l'aérodrome : 26 ft
- Code IATA : GLA


EGPF - Glasgow

DERNIER METAR :
  • 190650Z AUTO VRB03KT 9999 BKN037 M01/M02 Q1041

METARs EXPIRÉS :
  • 190620Z AUTO VRB01KT 9999 SCT040 M02/M02 Q1041
  • 190550Z AUTO VRB01KT 9999 NCD M02/M03 Q1041
  • 190520Z AUTO VRB01KT 0900 FZFG NCD M03/M03 Q1040
  • 190450Z AUTO 34002KT 7000 NCD M03/M03 Q1040
  • 190420Z AUTO 10001KT 0750 R23/1100 FZFG NCD M02/M03 Q1040

TAF TAF EGPF
Valide du 19 à 06h jusqu'au 20 à 06h UTC


190458Z 1906/2006 VRB04KT CAVOK
TEMPO 1906/1910 3000 BR
PROB30
TEMPO 1906/1909 0300 FZFG VV///
BECMG 1921/1924 22012KT
PROB30
TEMPO 1921/1924 23015G25KT
BECMG 2000/2003 BKN020
PROB40
TEMPO 2002/2006 BKN012
ATIS : +44 141 887 7449



MET'MAP, la Météo Aéronautique d'un coup d'oeil ! - Copyright ORBIFLY Décembre 2007 - Disclaimer

ORBIFLY MET'MAP TEAM :

Programmation & Développement : Alexandra Zaïnal
Sur une idée originale de : Baudouin d'Aumeries
Assistance à la programmation : Marc-Olivier Méhu
Soutien technique & logistique : Manuel Goepfert

Contact : metmap@orbifly.com




SOURCES & CREDITS :

   NOAA